Time;durP1;ratioP1;P1;durP2;ratioP2;P2;SDS_P1;SDS_P2;PMS_P1;PMS_P2;Temp;Humidity;BMP_temperature;BMP_pressure;BME280_temperature;BME280_humidity;BME280_pressure;Samples;Min_cycle;Max_cycle;Signal;HPM_P1;HPM_P2
2022/03/16 00:01:12;;;;;;;;;;;20.00;99.90;;;;;;5052613;28;19908;-71
2022/03/16 00:03:38;;;;;;;;;;;20.00;99.90;;;;;;5051290;28;19916;-71
2022/03/16 00:06:05;;;;;;;;;;;20.10;99.90;;;;;;5051884;28;19908;-72
2022/03/16 00:08:32;;;;;;;;;;;20.00;99.90;;;;;;5052021;28;19909;-72
2022/03/16 00:11:01;;;;;;;;;;;20.00;99.90;;;;;;5052332;28;19909;-72
2022/03/16 00:13:28;;;;;;;;;;;20.00;99.90;;;;;;5051943;28;19932;-72
2022/03/16 00:15:55;;;;;;;;;;;20.00;99.90;;;;;;5051888;28;20382;-72
2022/03/16 00:18:21;;;;;;;;;;;19.90;99.90;;;;;;5051744;28;19994;-71
2022/03/16 00:20:48;;;;;;;;;;;19.90;99.90;;;;;;5052108;28;19909;-72
2022/03/16 00:23:15;;;;;;;;;;;20.00;99.90;;;;;;5052216;28;19915;-71
2022/03/16 00:25:42;;;;;;;;;;;20.20;99.90;;;;;;5054525;28;19912;-72
2022/03/16 00:28:09;;;;;;;;;;;20.20;99.90;;;;;;5055863;28;20325;-72
2022/03/16 00:30:37;;;;;;;;;;;20.10;99.90;;;;;;5055897;28;19921;-72
2022/03/16 00:33:03;;;;;;;;;;;20.30;99.90;;;;;;5055638;28;19909;-72
2022/03/16 00:35:31;;;;;;;;;;;20.40;99.90;;;;;;5055786;28;19913;-72
2022/03/16 00:37:58;;;;;;;;;;;20.30;99.90;;;;;;5055621;28;19978;-72
2022/03/16 00:40:24;;;;;;;;;;;20.20;99.90;;;;;;5055503;28;19992;-72
2022/03/16 00:42:51;;;;;;;;;;;20.30;99.90;;;;;;5055528;28;19979;-72
2022/03/16 00:45:18;;;;;;;;;;;20.40;99.90;;;;;;5055781;28;19909;-72
2022/03/16 00:47:44;;;;;;;;;;;20.40;99.90;;;;;;5055520;28;19999;-71
2022/03/16 00:50:11;;;;;;;;;;;20.30;99.90;;;;;;5055303;28;19912;-72
2022/03/16 00:52:38;;;;;;;;;;;20.30;99.90;;;;;;5055343;28;19913;-72
2022/03/16 00:55:05;;;;;;;;;;;20.40;99.90;;;;;;5055299;28;20279;-72
2022/03/16 00:57:31;;;;;;;;;;;20.50;99.90;;;;;;5055288;28;20012;-73
2022/03/16 00:59:58;;;;;;;;;;;20.50;99.90;;;;;;5055329;28;19979;-72
2022/03/16 01:02:25;;;;;;;;;;;20.50;99.90;;;;;;5054979;28;19910;-72
2022/03/16 01:04:52;;;;;;;;;;;20.50;99.90;;;;;;5055310;28;19909;-72
2022/03/16 01:07:18;;;;;;;;;;;20.50;99.90;;;;;;5055077;28;20326;-72
2022/03/16 01:09:45;;;;;;;;;;;20.50;99.90;;;;;;5054950;28;19913;-71
2022/03/16 01:12:12;;;;;;;;;;;20.60;99.90;;;;;;5054772;28;19909;-71
2022/03/16 01:14:38;;;;;;;;;;;20.80;99.90;;;;;;5055066;28;19958;-71
2022/03/16 01:17:05;;;;;;;;;;;21.20;99.90;;;;;;5054627;28;19942;-71
2022/03/16 01:19:34;;;;;;;;;;;21.20;99.90;;;;;;5055010;28;19908;-72
2022/03/16 01:22:02;;;;;;;;;;;21.20;99.90;;;;;;5054810;28;19909;-71
2022/03/16 01:24:29;;;;;;;;;;;21.20;99.90;;;;;;5055028;28;19912;-72
2022/03/16 01:26:55;;;;;;;;;;;21.50;99.90;;;;;;5055094;28;19963;-72
2022/03/16 01:29:24;;;;;;;;;;;21.70;99.90;;;;;;5054836;28;19916;-72
2022/03/16 01:31:52;;;;;;;;;;;22.70;99.90;;;;;;5054672;28;19909;-72
2022/03/16 01:34:19;;;;;;;;;;;22.70;99.90;;;;;;5054484;28;20286;-72
2022/03/16 01:36:46;;;;;;;;;;;22.60;99.90;;;;;;5054592;28;19940;-72
2022/03/16 01:39:12;;;;;;;;;;;22.60;99.90;;;;;;5054671;28;20275;-71
2022/03/16 01:41:39;;;;;;;;;;;22.40;99.90;;;;;;5054567;28;19909;-72
2022/03/16 01:44:06;;;;;;;;;;;22.40;99.90;;;;;;5054242;28;19996;-72
2022/03/16 01:46:32;;;;;;;;;;;22.20;99.90;;;;;;5054431;28;19909;-72
2022/03/16 01:48:59;;;;;;;;;;;22.10;99.90;;;;;;5054556;28;19909;-72
2022/03/16 01:51:26;;;;;;;;;;;21.90;99.90;;;;;;5054443;28;19954;-71
2022/03/16 01:53:52;;;;;;;;;;;22.00;99.90;;;;;;5054582;28;19909;-72
2022/03/16 01:56:19;;;;;;;;;;;22.10;99.90;;;;;;5054108;28;19921;-72
2022/03/16 01:58:46;;;;;;;;;;;22.10;99.90;;;;;;5054324;28;20088;-71
2022/03/16 02:01:16;;;;;;;;;;;22.30;99.90;;;;;;5054470;28;19940;-72
2022/03/16 02:03:43;;;;;;;;;;;22.40;99.90;;;;;;5053996;28;19909;-71
2022/03/16 02:06:10;;;;;;;;;;;22.40;99.90;;;;;;5053742;28;19913;-71
2022/03/16 02:08:37;;;;;;;;;;;22.50;99.90;;;;;;5053914;28;19967;-71
2022/03/16 02:11:04;;;;;;;;;;;22.60;99.90;;;;;;5054315;28;19913;-71
2022/03/16 02:13:34;;;;;;;;;;;22.60;99.90;;;;;;5054195;28;19952;-71
2022/03/16 02:16:01;;;;;;;;;;;22.60;99.90;;;;;;5053961;28;19916;-72
2022/03/16 02:18:28;;;;;;;;;;;22.70;99.90;;;;;;5053595;28;19999;-72
2022/03/16 02:20:55;;;;;;;;;;;22.70;99.90;;;;;;5053814;28;19909;-71
2022/03/16 02:23:22;;;;;;;;;;;22.80;99.90;;;;;;5054013;28;20367;-71
2022/03/16 02:25:52;;;;;;;;;;;22.80;99.90;;;;;;5053796;28;19909;-71
2022/03/16 02:28:19;;;;;;;;;;;22.80;99.90;;;;;;5053596;28;19909;-71
2022/03/16 02:30:46;;;;;;;;;;;22.80;99.90;;;;;;5053637;28;19908;-71
2022/03/16 02:33:13;;;;;;;;;;;22.90;99.90;;;;;;5053606;28;19908;-71
2022/03/16 02:35:40;;;;;;;;;;;23.00;99.90;;;;;;5053342;28;19912;-71
2022/03/16 02:38:07;;;;;;;;;;;23.00;99.90;;;;;;5053430;28;19960;-71
2022/03/16 02:40:34;;;;;;;;;;;23.20;99.90;;;;;;5053357;28;20008;-71
2022/03/16 02:43:02;;;;;;;;;;;23.10;99.90;;;;;;5053421;28;20066;-71
2022/03/16 02:45:29;;;;;;;;;;;23.10;99.90;;;;;;5053316;28;19915;-71
2022/03/16 02:47:56;;;;;;;;;;;23.10;99.90;;;;;;5052910;28;19915;-71
2022/03/16 02:50:23;;;;;;;;;;;23.20;99.90;;;;;;5052948;28;19919;-71
2022/03/16 02:52:50;;;;;;;;;;;23.10;99.90;;;;;;5053055;28;19909;-71
2022/03/16 02:55:17;;;;;;;;;;;23.20;99.90;;;;;;5053275;28;20359;-71
2022/03/16 02:57:44;;;;;;;;;;;23.30;99.90;;;;;;5053150;28;20003;-71
2022/03/16 03:00:12;;;;;;;;;;;23.30;99.90;;;;;;5053032;28;20384;-71
2022/03/16 03:02:41;;;;;;;;;;;23.40;99.90;;;;;;5053067;28;19909;-71
2022/03/16 03:05:08;;;;;;;;;;;23.40;99.90;;;;;;5052804;28;19909;-71
2022/03/16 03:07:35;;;;;;;;;;;23.60;99.90;;;;;;5052934;28;19909;-71
2022/03/16 03:10:01;;;;;;;;;;;23.70;99.90;;;;;;5052945;28;20375;-71
2022/03/16 03:12:32;;;;;;;;;;;23.70;99.90;;;;;;5052728;28;19944;-71
2022/03/16 03:14:59;;;;;;;;;;;23.80;99.90;;;;;;5052880;28;19916;-71
2022/03/16 03:17:26;;;;;;;;;;;23.80;99.90;;;;;;5052718;28;19988;-71
2022/03/16 03:19:53;;;;;;;;;;;23.70;99.90;;;;;;5052725;28;19963;-71
2022/03/16 03:22:19;;;;;;;;;;;23.70;99.90;;;;;;5052586;28;19909;-71
2022/03/16 03:24:46;;;;;;;;;;;23.70;99.90;;;;;;5053015;28;20355;-71
2022/03/16 03:27:13;;;;;;;;;;;23.70;99.90;;;;;;5052649;28;19938;-70
2022/03/16 03:29:39;;;;;;;;;;;23.60;99.90;;;;;;5052680;28;19952;-70
2022/03/16 03:32:06;;;;;;;;;;;23.60;99.90;;;;;;5052309;28;19932;-70
2022/03/16 03:34:33;;;;;;;;;;;23.60;99.90;;;;;;5052618;28;20027;-70
2022/03/16 03:36:59;;;;;;;;;;;23.50;99.90;;;;;;5052094;28;19940;-70
2022/03/16 03:39:26;;;;;;;;;;;23.60;99.90;;;;;;5052472;28;20306;-71
2022/03/16 03:41:52;;;;;;;;;;;23.60;99.90;;;;;;5052624;28;19916;-70
2022/03/16 03:44:19;;;;;;;;;;;23.60;99.90;;;;;;5052339;28;19916;-71
2022/03/16 03:46:46;;;;;;;;;;;23.70;99.90;;;;;;5052486;28;19909;-70
2022/03/16 03:49:12;;;;;;;;;;;23.80;99.90;;;;;;5052424;28;19909;-70
2022/03/16 03:51:39;;;;;;;;;;;23.70;99.90;;;;;;5052347;28;19974;-70
2022/03/16 03:54:06;;;;;;;;;;;23.80;99.90;;;;;;5052313;28;20423;-70
2022/03/16 03:56:32;;;;;;;;;;;23.70;99.90;;;;;;5052199;28;19917;-70
2022/03/16 03:58:59;;;;;;;;;;;23.80;99.90;;;;;;5052329;28;20278;-70
2022/03/16 04:01:26;;;;;;;;;;;23.60;99.90;;;;;;5055743;28;19909;-71
2022/03/16 04:03:52;;;;;;;;;;;23.60;99.90;;;;;;5056535;28;19909;-70
2022/03/16 04:06:19;;;;;;;;;;;23.60;99.90;;;;;;5056063;28;19909;-71
2022/03/16 04:08:46;;;;;;;;;;;23.70;99.90;;;;;;5056381;28;20003;-72
2022/03/16 04:11:12;;;;;;;;;;;23.60;99.90;;;;;;5056308;28;20504;-71
2022/03/16 04:13:39;;;;;;;;;;;23.60;99.90;;;;;;5056004;28;19909;-71
2022/03/16 04:16:06;;;;;;;;;;;23.60;99.90;;;;;;5055942;28;19917;-71
2022/03/16 04:18:32;;;;;;;;;;;23.60;99.90;;;;;;5055950;28;19960;-71
2022/03/16 04:20:59;;;;;;;;;;;23.70;99.90;;;;;;5056161;28;19916;-71
2022/03/16 04:23:26;;;;;;;;;;;23.80;99.90;;;;;;5054980;28;19932;-71
2022/03/16 04:25:52;;;;;;;;;;;23.70;99.90;;;;;;5055992;28;19908;-71
2022/03/16 04:28:19;;;;;;;;;;;23.70;99.90;;;;;;5055720;28;19909;-70
2022/03/16 04:30:46;;;;;;;;;;;23.70;99.90;;;;;;5055824;28;19909;-71
2022/03/16 04:33:12;;;;;;;;;;;23.60;99.90;;;;;;5055775;28;19985;-71
2022/03/16 04:35:39;;;;;;;;;;;23.50;99.90;;;;;;5055465;28;19909;-71
2022/03/16 04:38:08;;;;;;;;;;;23.60;99.90;;;;;;5055525;28;19913;-71
2022/03/16 04:40:35;;;;;;;;;;;23.60;99.90;;;;;;5055674;28;19909;-71
2022/03/16 04:43:01;;;;;;;;;;;23.50;99.90;;;;;;5055887;28;19909;-70
2022/03/16 04:45:28;;;;;;;;;;;23.50;99.90;;;;;;5055474;28;19909;-71
2022/03/16 04:47:55;;;;;;;;;;;23.50;99.90;;;;;;5055708;28;19920;-71
2022/03/16 04:50:21;;;;;;;;;;;23.60;99.90;;;;;;5055181;28;19909;-70
2022/03/16 04:52:49;;;;;;;;;;;23.70;99.90;;;;;;5055593;28;19913;-71
2022/03/16 04:55:16;;;;;;;;;;;23.70;99.90;;;;;;5055382;28;19909;-71
2022/03/16 04:57:43;;;;;;;;;;;23.70;99.90;;;;;;5055324;28;19917;-71
2022/03/16 05:00:10;;;;;;;;;;;23.60;99.90;;;;;;5055018;28;20287;-71
2022/03/16 05:02:37;;;;;;;;;;;23.60;99.90;;;;;;5055328;28;20382;-71
2022/03/16 05:05:04;;;;;;;;;;;23.50;99.90;;;;;;5055539;28;19909;-71
2022/03/16 05:07:31;;;;;;;;;;;23.50;99.90;;;;;;5055109;28;20000;-71
2022/03/16 05:09:57;;;;;;;;;;;23.50;99.90;;;;;;5037284;28;20287;-71
2022/03/16 05:12:24;;;;;;;;;;;23.50;99.90;;;;;;5054646;28;19909;-71
2022/03/16 05:14:50;;;;;;;;;;;23.40;99.90;;;;;;5055073;28;19913;-71
2022/03/16 05:17:17;;;;;;;;;;;23.40;99.90;;;;;;5054596;28;19925;-70
2022/03/16 05:19:44;;;;;;;;;;;23.40;99.90;;;;;;5053695;28;20310;-71
2022/03/16 05:22:10;;;;;;;;;;;23.40;99.90;;;;;;5054726;28;19913;-71
2022/03/16 05:24:37;;;;;;;;;;;23.40;99.90;;;;;;5055239;28;19909;-71
2022/03/16 05:27:04;;;;;;;;;;;23.50;99.90;;;;;;5054852;28;20278;-71
2022/03/16 05:29:30;;;;;;;;;;;23.40;99.90;;;;;;5054800;28;19920;-71
2022/03/16 05:31:57;;;;;;;;;;;23.40;99.90;;;;;;5054749;28;20425;-71
2022/03/16 05:34:24;;;;;;;;;;;23.40;99.90;;;;;;5054355;28;19916;-70
2022/03/16 05:36:50;;;;;;;;;;;23.50;99.90;;;;;;5054697;28;20020;-71
2022/03/16 05:39:17;;;;;;;;;;;23.50;99.90;;;;;;5054573;28;19943;-71
2022/03/16 05:41:44;;;;;;;;;;;23.50;99.90;;;;;;5054659;28;19919;-71
2022/03/16 05:44:10;;;;;;;;;;;23.40;99.90;;;;;;5054334;28;20272;-71
2022/03/16 05:46:37;;;;;;;;;;;23.30;99.90;;;;;;5054632;28;20265;-71
2022/03/16 05:49:04;;;;;;;;;;;23.30;99.90;;;;;;5054388;28;19952;-71
2022/03/16 05:51:31;;;;;;;;;;;23.30;99.90;;;;;;5052869;28;19928;-71
2022/03/16 05:53:58;;;;;;;;;;;23.30;99.90;;;;;;5052293;28;19908;-71
2022/03/16 05:56:25;;;;;;;;;;;23.30;99.90;;;;;;5051940;28;19920;-71
2022/03/16 05:58:51;;;;;;;;;;;23.30;99.90;;;;;;5052434;28;20011;-71
2022/03/16 06:01:18;;;;;;;;;;;23.20;99.90;;;;;;5052202;28;19909;-71
2022/03/16 06:03:45;;;;;;;;;;;23.20;99.90;;;;;;5052223;28;19962;-72
2022/03/16 06:06:11;;;;;;;;;;;23.10;99.90;;;;;;5051524;28;19952;-71
2022/03/16 06:08:38;;;;;;;;;;;23.00;99.90;;;;;;5052016;28;19962;-70
2022/03/16 06:11:05;;;;;;;;;;;23.00;99.90;;;;;;5051887;28;19952;-70
2022/03/16 06:13:31;;;;;;;;;;;23.00;99.90;;;;;;5052133;28;20279;-70
2022/03/16 06:15:58;;;;;;;;;;;23.00;99.90;;;;;;5051687;28;19921;-70
2022/03/16 06:18:24;;;;;;;;;;;23.10;99.90;;;;;;5051048;28;19925;-71
2022/03/16 06:20:51;;;;;;;;;;;23.00;99.90;;;;;;5051607;28;19909;-71
2022/03/16 06:23:18;;;;;;;;;;;22.90;99.90;;;;;;5050979;28;20367;-71
2022/03/16 06:25:44;;;;;;;;;;;22.90;99.90;;;;;;5051517;28;19909;-71
2022/03/16 06:28:11;;;;;;;;;;;22.90;99.90;;;;;;5051638;28;19909;-71
2022/03/16 06:30:38;;;;;;;;;;;23.00;99.90;;;;;;5051361;28;19996;-71
2022/03/16 06:33:04;;;;;;;;;;;23.10;99.90;;;;;;5051565;28;19919;-71
2022/03/16 06:35:32;;;;;;;;;;;23.10;99.90;;;;;;5051506;28;19912;-71
2022/03/16 06:37:59;;;;;;;;;;;23.10;99.90;;;;;;5051385;28;19947;-71
2022/03/16 06:40:26;;;;;;;;;;;23.10;99.90;;;;;;5051132;28;20363;-71
2022/03/16 06:42:52;;;;;;;;;;;23.10;99.90;;;;;;5051433;28;19919;-71
2022/03/16 06:45:20;;;;;;;;;;;23.20;99.90;;;;;;5050873;28;19920;-71
2022/03/16 06:47:46;;;;;;;;;;;23.00;99.90;;;;;;5051426;28;19912;-71
2022/03/16 06:50:13;;;;;;;;;;;23.00;99.90;;;;;;5050906;28;20330;-71
2022/03/16 06:52:40;;;;;;;;;;;22.90;99.90;;;;;;5050344;28;20379;-71
2022/03/16 06:55:08;;;;;;;;;;;22.90;99.90;;;;;;5050985;28;19992;-71
2022/03/16 06:57:34;;;;;;;;;;;22.90;99.90;;;;;;5050124;28;19925;-70
2022/03/16 07:00:02;;;;;;;;;;;22.90;99.90;;;;;;5050847;28;20262;-71
2022/03/16 07:02:29;;;;;;;;;;;22.90;99.90;;;;;;5050632;28;20389;-71
2022/03/16 07:04:55;;;;;;;;;;;22.90;99.90;;;;;;5051146;28;19913;-71
2022/03/16 07:07:26;;;;;;;;;;;22.90;99.90;;;;;;5050161;28;19916;-71
2022/03/16 07:09:53;;;;;;;;;;;22.90;99.90;;;;;;5050444;28;19913;-71
2022/03/16 07:12:20;;;;;;;;;;;22.90;99.90;;;;;;5050631;28;20157;-71
2022/03/16 07:14:47;;;;;;;;;;;22.80;99.90;;;;;;5050806;28;19913;-71
2022/03/16 07:17:13;;;;;;;;;;;22.80;99.90;;;;;;5050402;28;19924;-71
2022/03/16 07:19:40;;;;;;;;;;;22.70;99.90;;;;;;5050028;28;19913;-71
2022/03/16 07:22:07;;;;;;;;;;;22.60;99.90;;;;;;5049526;28;20274;-71
2022/03/16 07:24:33;;;;;;;;;;;22.50;99.90;;;;;;5050169;28;19916;-71
2022/03/16 07:27:03;;;;;;;;;;;22.50;99.90;;;;;;5050815;28;19963;-71
2022/03/16 07:29:30;;;;;;;;;;;22.40;99.90;;;;;;5050728;28;20283;-71
2022/03/16 07:31:57;;;;;;;;;;;22.40;99.90;;;;;;5050650;28;20260;-71
2022/03/16 07:34:26;;;;;;;;;;;22.40;99.90;;;;;;5049705;28;20188;-71
2022/03/16 07:36:53;;;;;;;;;;;22.30;99.90;;;;;;5049202;28;20007;-71
2022/03/16 07:39:20;;;;;;;;;;;22.40;99.90;;;;;;5050448;28;20078;-71
2022/03/16 07:41:47;;;;;;;;;;;22.30;99.90;;;;;;5050241;28;19909;-71
2022/03/16 07:44:13;;;;;;;;;;;22.30;99.90;;;;;;5050020;28;19909;-71
2022/03/16 07:46:40;;;;;;;;;;;22.30;99.90;;;;;;5049845;28;19913;-71
2022/03/16 07:49:06;;;;;;;;;;;22.30;99.90;;;;;;5049568;28;19917;-71
2022/03/16 07:51:33;;;;;;;;;;;22.30;99.90;;;;;;5049702;28;20252;-71
2022/03/16 07:54:00;;;;;;;;;;;22.20;99.90;;;;;;5050262;28;19917;-71
2022/03/16 07:56:26;;;;;;;;;;;22.20;99.90;;;;;;5049929;28;20012;-71
2022/03/16 07:58:54;;;;;;;;;;;22.20;99.90;;;;;;5050163;28;20435;-71
2022/03/16 08:01:20;;;;;;;;;;;22.20;99.90;;;;;;5049987;28;19963;-71
2022/03/16 08:03:47;;;;;;;;;;;22.20;99.90;;;;;;5049331;28;19916;-71
2022/03/16 08:06:14;;;;;;;;;;;22.20;99.90;;;;;;5050683;28;20295;-71
2022/03/16 08:08:41;;;;;;;;;;;22.20;99.90;;;;;;5052054;28;19920;-71
2022/03/16 08:11:07;;;;;;;;;;;22.20;99.90;;;;;;5052080;28;19909;-72
2022/03/16 08:13:37;;;;;;;;;;;22.10;99.90;;;;;;5051993;28;19932;-71
2022/03/16 08:16:04;;;;;;;;;;;22.10;99.90;;;;;;5051715;28;19924;-72
2022/03/16 08:18:31;;;;;;;;;;;22.10;99.90;;;;;;5051431;28;19929;-71
2022/03/16 08:20:58;;;;;;;;;;;22.20;99.90;;;;;;5052314;28;19909;-71
2022/03/16 08:23:24;;;;;;;;;;;22.10;99.90;;;;;;5052064;28;19916;-71
2022/03/16 08:25:51;;;;;;;;;;;22.10;99.90;;;;;;5052346;28;19909;-71
2022/03/16 08:28:18;;;;;;;;;;;22.10;99.90;;;;;;5051842;28;19913;-71
2022/03/16 08:30:44;;;;;;;;;;;22.10;99.90;;;;;;5051855;28;20256;-71
2022/03/16 08:33:11;;;;;;;;;;;22.10;99.90;;;;;;5052015;28;19909;-71
2022/03/16 08:35:39;;;;;;;;;;;22.00;99.90;;;;;;5052013;28;19909;-71
2022/03/16 08:38:05;;;;;;;;;;;22.00;99.90;;;;;;5051722;28;20275;-71
2022/03/16 08:40:32;;;;;;;;;;;22.00;99.90;;;;;;5052091;28;19916;-71
2022/03/16 08:42:59;;;;;;;;;;;22.00;99.90;;;;;;5051799;28;19915;-71
2022/03/16 08:45:25;;;;;;;;;;;22.00;99.90;;;;;;5051669;28;19940;-71
2022/03/16 08:47:52;;;;;;;;;;;22.10;99.90;;;;;;5055677;28;19909;-71
2022/03/16 08:50:19;;;;;;;;;;;22.00;99.90;;;;;;5055387;28;19909;-71
2022/03/16 08:52:47;;;;;;;;;;;22.00;99.90;;;;;;5055776;28;19962;-71
2022/03/16 08:55:15;;;;;;;;;;;22.00;99.90;;;;;;5055545;28;19936;-71
2022/03/16 08:57:45;;;;;;;;;;;22.00;99.90;;;;;;5055559;28;20362;-71
2022/03/16 09:00:18;;;;;;;;;;;22.10;99.90;;;;;;5055088;28;19920;-71
2022/03/16 09:02:45;;;;;;;;;;;22.10;99.90;;;;;;5055689;28;20329;-71
2022/03/16 09:05:17;;;;;;;;;;;22.10;99.90;;;;;;5055201;28;19932;-71
2022/03/16 09:07:44;;;;;;;;;;;22.10;99.90;;;;;;5055443;28;19913;-71
2022/03/16 09:10:10;;;;;;;;;;;22.10;99.90;;;;;;5055017;28;19919;-71
2022/03/16 09:12:37;;;;;;;;;;;22.10;99.90;;;;;;5055335;28;20007;-71
2022/03/16 09:15:04;;;;;;;;;;;22.00;99.90;;;;;;5055269;28;19908;-71
2022/03/16 09:17:33;;;;;;;;;;;22.00;99.90;;;;;;5054835;28;19971;-71
2022/03/16 09:20:00;;;;;;;;;;;22.00;99.90;;;;;;5054914;28;19908;-71
2022/03/16 09:22:27;;;;;;;;;;;22.00;99.90;;;;;;5054744;28;19970;-71
2022/03/16 09:24:55;;;;;;;;;;;22.00;99.90;;;;;;5054832;28;19908;-71
2022/03/16 09:27:22;;;;;;;;;;;22.00;99.90;;;;;;5055057;28;19916;-71
2022/03/16 09:29:49;;;;;;;;;;;21.90;99.90;;;;;;5055046;28;20355;-71
2022/03/16 09:32:15;;;;;;;;;;;21.90;99.90;;;;;;5054840;28;19909;-71
2022/03/16 09:34:42;;;;;;;;;;;21.90;99.90;;;;;;5054663;28;19909;-71
2022/03/16 09:37:12;;;;;;;;;;;21.80;99.90;;;;;;5054646;28;19924;-71
2022/03/16 09:39:39;;;;;;;;;;;21.80;99.90;;;;;;5054639;28;19915;-71
2022/03/16 09:42:06;;;;;;;;;;;21.80;99.90;;;;;;5054505;28;19909;-71
2022/03/16 09:44:33;;;;;;;;;;;21.70;99.90;;;;;;5054734;28;19909;-71
2022/03/16 09:47:00;;;;;;;;;;;21.80;99.90;;;;;;5054673;28;20381;-71
2022/03/16 09:49:27;;;;;;;;;;;21.90;99.90;;;;;;5054546;28;19915;-71
2022/03/16 09:51:54;;;;;;;;;;;21.90;99.90;;;;;;5054751;28;19948;-71
2022/03/16 09:54:21;;;;;;;;;;;21.90;99.90;;;;;;5054417;28;19909;-72
2022/03/16 09:56:48;;;;;;;;;;;21.90;99.90;;;;;;5054529;28;19920;-72
2022/03/16 09:59:15;;;;;;;;;;;21.90;99.90;;;;;;5054664;28;19991;-72
2022/03/16 10:01:43;;;;;;;;;;;21.90;99.90;;;;;;5053709;28;19909;-72
2022/03/16 10:04:10;;;;;;;;;;;21.90;99.90;;;;;;5054015;28;19920;-71
2022/03/16 10:06:40;;;;;;;;;;;21.90;99.90;;;;;;5054075;28;19916;-71
2022/03/16 10:15:10;;;;;;;;;;;21.80;99.90;;;;;;5054485;28;19919;-72
2022/03/16 10:17:46;;;;;;;;;;;21.80;99.90;;;;;;5053093;28;19921;-71
2022/03/16 10:20:26;;;;;;;;;;;21.80;99.90;;;;;;5053664;28;19995;-72
2022/03/16 10:23:13;;;;;;;;;;;21.80;99.90;;;;;;5053816;28;19908;-72
2022/03/16 10:25:41;;;;;;;;;;;21.70;99.90;;;;;;5043459;28;19909;-72
2022/03/16 10:28:17;;;;;;;;;;;21.70;99.90;;;;;;5053470;28;19909;-72
2022/03/16 10:30:55;;;;;;;;;;;21.70;99.90;;;;;;5053236;28;19912;-71
2022/03/16 10:33:23;;;;;;;;;;;21.70;99.90;;;;;;5053418;28;19908;-72
2022/03/16 10:35:57;;;;;;;;;;;21.60;99.90;;;;;;5053370;28;20012;-70
2022/03/16 10:38:25;;;;;;;;;;;21.60;99.90;;;;;;5053167;28;19913;-70
2022/03/16 10:40:56;;;;;;;;;;;21.60;99.90;;;;;;5053470;28;19970;-70
2022/03/16 10:49:10;;;;;;;;;;;21.60;99.90;;;;;;5053689;28;20370;-70
2022/03/16 10:51:38;;;;;;;;;;;21.50;99.90;;;;;;5053443;28;20385;-70
2022/03/16 10:54:05;;;;;;;;;;;21.50;99.90;;;;;;5053215;28;20366;-70
2022/03/16 10:56:32;;;;;;;;;;;21.50;99.90;;;;;;5053095;28;19913;-70
2022/03/16 10:58:59;;;;;;;;;;;21.50;99.90;;;;;;5053451;28;19913;-70
2022/03/16 11:01:27;;;;;;;;;;;21.60;99.90;;;;;;5052764;28;19909;-70
2022/03/16 11:03:55;;;;;;;;;;;21.60;99.90;;;;;;5052918;28;19970;-70
2022/03/16 11:06:22;;;;;;;;;;;21.60;99.90;;;;;;5052789;28;20343;-69
2022/03/16 11:08:50;;;;;;;;;;;21.50;99.90;;;;;;5052541;28;19909;-70
2022/03/16 11:14:02;;;;;;;;;;;21.60;99.90;;;;;;5053341;28;19920;-70
2022/03/16 11:16:29;;;;;;;;;;;21.50;99.90;;;;;;5052210;28;19942;-70
2022/03/16 11:18:57;;;;;;;;;;;21.50;99.90;;;;;;5052690;28;19916;-70
2022/03/16 11:21:29;;;;;;;;;;;21.50;99.90;;;;;;5052666;28;19986;-70
2022/03/16 11:26:49;;;;;;;;;;;21.50;99.90;;;;;;5053422;28;19920;-70
2022/03/16 11:29:22;;;;;;;;;;;21.40;99.90;;;;;;5052566;28;19916;-70
2022/03/16 11:31:49;;;;;;;;;;;21.40;99.90;;;;;;5052567;28;19909;-73
2022/03/16 11:34:22;;;;;;;;;;;21.40;99.90;;;;;;5052262;28;19908;-73
2022/03/16 11:37:03;;;;;;;;;;;21.40;99.90;;;;;;5052366;28;20371;-73
2022/03/16 11:39:41;;;;;;;;;;;21.40;99.90;;;;;;5052574;28;19912;-73
2022/03/16 11:42:08;;;;;;;;;;;21.40;99.90;;;;;;5034252;28;19915;-70
2022/03/16 11:44:35;;;;;;;;;;;21.40;99.90;;;;;;5052555;28;20378;-73
2022/03/16 11:47:11;;;;;;;;;;;21.30;99.90;;;;;;5052238;28;19909;-70
2022/03/16 11:49:38;;;;;;;;;;;21.30;99.90;;;;;;5052542;28;19923;-72
2022/03/16 11:52:08;;;;;;;;;;;21.30;99.90;;;;;;5052224;28;19977;-70
2022/03/16 11:54:48;;;;;;;;;;;21.20;99.90;;;;;;5052471;28;19909;-70
2022/03/16 11:57:30;;;;;;;;;;;21.20;99.90;;;;;;5052579;28;19928;-72
2022/03/16 11:59:59;;;;;;;;;;;21.20;99.90;;;;;;5052473;28;19916;-70
2022/03/16 12:02:27;;;;;;;;;;;21.20;99.90;;;;;;5052184;28;20053;-70
2022/03/16 12:05:00;;;;;;;;;;;21.20;99.90;;;;;;5052228;28;19916;-70
2022/03/16 12:07:35;;;;;;;;;;;21.20;99.90;;;;;;5052263;28;19913;-70
2022/03/16 12:10:12;;;;;;;;;;;21.20;99.90;;;;;;5052316;28;19916;-71
2022/03/16 12:13:00;;;;;;;;;;;21.10;99.90;;;;;;5052296;28;19909;-71
2022/03/16 12:15:42;;;;;;;;;;;21.10;99.90;;;;;;5052113;28;20366;-71
2022/03/16 12:18:14;;;;;;;;;;;21.10;99.90;;;;;;5051627;28;19948;-71
2022/03/16 12:20:42;;;;;;;;;;;21.00;99.90;;;;;;5052718;28;19916;-71
2022/03/16 12:23:10;;;;;;;;;;;21.00;99.90;;;;;;5056277;28;20267;-71
2022/03/16 12:25:40;;;;;;;;;;;21.00;99.90;;;;;;5056323;28;19909;-71
2022/03/16 12:31:00;;;;;;;;;;;20.90;99.90;;;;;;5056456;28;20270;-71
2022/03/16 12:33:27;;;;;;;;;;;20.90;99.90;;;;;;5055983;28;19909;-71
2022/03/16 12:35:53;;;;;;;;;;;20.90;99.90;;;;;;5056156;28;19909;-71
2022/03/16 12:38:21;;;;;;;;;;;20.90;99.90;;;;;;5055994;28;19909;-71
2022/03/16 12:43:33;;;;;;;;;;;20.90;99.90;;;;;;5056387;28;19984;-71
2022/03/16 12:46:09;;;;;;;;;;;20.90;99.90;;;;;;5055800;28;19971;-71
2022/03/16 12:48:36;;;;;;;;;;;20.90;99.90;;;;;;5055897;28;19991;-71
2022/03/16 12:51:04;;;;;;;;;;;20.90;99.90;;;;;;5055580;28;19916;-71
2022/03/16 12:53:44;;;;;;;;;;;20.90;99.90;;;;;;5055836;28;19909;-71
2022/03/16 12:56:12;;;;;;;;;;;20.90;99.90;;;;;;5055311;28;20374;-71
2022/03/16 12:58:39;;;;;;;;;;;20.90;99.90;;;;;;5055694;28;19916;-71
2022/03/16 13:01:06;;;;;;;;;;;21.00;99.90;;;;;;5055566;28;19932;-71
2022/03/16 13:03:32;;;;;;;;;;;21.00;99.90;;;;;;5055523;28;20359;-71
2022/03/16 13:05:59;;;;;;;;;;;20.90;99.90;;;;;;5055621;28;19908;-71
2022/03/16 13:08:26;;;;;;;;;;;20.90;99.90;;;;;;5055392;28;19909;-71
2022/03/16 13:11:17;;;;;;;;;;;20.90;99.90;;;;;;5055441;28;19909;-71
2022/03/16 13:13:47;;;;;;;;;;;20.90;99.90;;;;;;5055919;28;20389;-71
2022/03/16 13:16:31;;;;;;;;;;;20.90;99.90;;;;;;5054854;28;19924;-71
2022/03/16 13:18:58;;;;;;;;;;;20.90;99.90;;;;;;5055116;28;19924;-71
2022/03/16 13:21:25;;;;;;;;;;;20.90;99.90;;;;;;5055283;28;19939;-71
2022/03/16 13:24:02;;;;;;;;;;;20.90;99.90;;;;;;5055110;28;19916;-71
2022/03/16 13:26:29;;;;;;;;;;;20.90;99.90;;;;;;5055153;28;19909;-71
2022/03/16 13:28:57;;;;;;;;;;;21.00;99.90;;;;;;5054953;28;19921;-71
2022/03/16 13:31:31;;;;;;;;;;;21.00;99.90;;;;;;5054503;28;19961;-71
2022/03/16 13:34:05;;;;;;;;;;;21.00;99.90;;;;;;5054929;28;19913;-71
2022/03/16 13:36:35;;;;;;;;;;;21.00;99.90;;;;;;5054755;28;19960;-71
2022/03/16 13:39:22;;;;;;;;;;;21.10;99.90;;;;;;5054730;28;20260;-71
2022/03/16 13:42:13;;;;;;;;;;;21.10;99.90;;;;;;5054504;28;19909;-71
2022/03/16 13:44:44;;;;;;;;;;;21.10;99.90;;;;;;5054795;28;19909;-71
2022/03/16 13:47:11;;;;;;;;;;;21.10;99.90;;;;;;5054237;28;19955;-71
2022/03/16 13:49:38;;;;;;;;;;;21.10;99.90;;;;;;5054740;28;19909;-71
2022/03/16 13:52:05;;;;;;;;;;;21.10;99.90;;;;;;5054641;28;19916;-71
2022/03/16 13:54:33;;;;;;;;;;;21.10;99.90;;;;;;5054608;28;20432;-71
2022/03/16 13:57:16;;;;;;;;;;;21.10;99.90;;;;;;5054407;28;20007;-71
2022/03/16 13:59:51;;;;;;;;;;;21.00;99.90;;;;;;5054438;28;20330;-71
2022/03/16 14:02:22;;;;;;;;;;;21.00;99.90;;;;;;5054067;28;19913;-71
2022/03/16 14:04:59;;;;;;;;;;;20.90;99.90;;;;;;5053095;28;19909;-71
2022/03/16 14:07:30;;;;;;;;;;;20.90;99.90;;;;;;5054441;28;19916;-70
2022/03/16 14:09:58;;;;;;;;;;;20.80;99.90;;;;;;5054294;28;19908;-71
2022/03/16 14:12:25;;;;;;;;;;;20.80;99.90;;;;;;5053905;28;20367;-70
2022/03/16 14:15:10;;;;;;;;;;;20.70;99.90;;;;;;5054133;28;19915;-71
2022/03/16 14:17:58;;;;;;;;;;;20.70;99.90;;;;;;5053779;28;19968;-71
2022/03/16 14:20:29;;;;;;;;;;;20.60;99.90;;;;;;5053851;28;19909;-71
2022/03/16 14:22:56;;;;;;;;;;;20.60;99.90;;;;;;5053931;28;19966;-71
2022/03/16 14:25:23;;;;;;;;;;;20.60;99.90;;;;;;5053873;28;19962;-70
2022/03/16 14:27:50;;;;;;;;;;;20.60;99.90;;;;;;5053874;28;19913;-70
2022/03/16 14:30:17;;;;;;;;;;;20.50;99.90;;;;;;5053781;28;20000;-71
2022/03/16 14:32:48;;;;;;;;;;;20.50;99.90;;;;;;5053817;28;19917;-71
2022/03/16 14:35:16;;;;;;;;;;;20.50;99.90;;;;;;5053852;28;19978;-70
2022/03/16 14:37:44;;;;;;;;;;;20.50;99.90;;;;;;5053942;28;19921;-71
2022/03/16 14:40:15;;;;;;;;;;;20.50;99.90;;;;;;5053344;28;19913;-71
2022/03/16 14:42:44;;;;;;;;;;;20.50;99.90;;;;;;5053734;28;20362;-71
2022/03/16 14:45:10;;;;;;;;;;;20.50;99.90;;;;;;5052910;28;20367;-70